Terminal Aerodrome Forecast
Issued by NWS Newport/Morehead City, NC

Home | Current Version | Previous Version | Graphics & Text | Print | Product List | Glossary On
Versions: 1 2 3 4 5 6 7 8 9 10 11 12
000
FTUS42 KMHX 190521
TAFEWN
TAF
KEWN 190521Z 1906/2006 22009KT P6SM SKC WS020/25040KT
     FM190900 22010KT P6SM FEW250
     FM191700 29015G23KT P6SM BKN060
     FM200000 32012KT P6SM FEW250=

USA.gov is the U.S. government's official web portal to all federal, state and local government web resources and services.